createdAt,value
2019-04-21T00:02:06.660Z,6.67
2019-04-21T00:04:52.052Z,7.10
2019-04-21T00:07:31.607Z,6.30
2019-04-21T00:10:06.303Z,6.40
2019-04-21T00:12:38.913Z,6.50
2019-04-21T00:15:02.112Z,7.43
2019-04-21T00:17:29.896Z,7.40
2019-04-21T00:20:12.478Z,8.07
2019-04-21T00:22:52.115Z,7.67
2019-04-21T00:25:27.542Z,9.25
2019-04-21T00:28:03.156Z,7.73
2019-04-21T00:30:41.224Z,8.37
2019-04-21T00:33:03.114Z,7.73
2019-04-21T00:35:29.379Z,7.47
2019-04-21T00:38:17.208Z,8.30
2019-04-21T00:40:55.424Z,7.57
2019-04-21T00:43:25.262Z,7.53
2019-04-21T00:45:53.602Z,8.27
2019-04-21T00:48:36.567Z,7.50
2019-04-21T00:51:25.022Z,6.77
2019-04-21T00:56:21.828Z,7.30
2019-04-21T00:58:59.900Z,6.50
2019-04-21T01:01:27.972Z,8.00
2019-04-21T01:04:06.224Z,7.33
2019-04-21T01:06:39.747Z,7.57
2019-04-21T01:09:07.950Z,7.17
2019-04-21T01:11:47.478Z,7.57
2019-04-21T01:14:25.899Z,7.07
2019-04-21T01:16:53.304Z,7.13
2019-04-21T01:19:23.797Z,7.43
2019-04-21T01:21:37.530Z,7.87
2019-04-21T01:24:16.896Z,7.60
2019-04-21T01:26:55.646Z,7.23
2019-04-21T01:29:44.168Z,8.00
2019-04-21T01:32:19.625Z,7.33
2019-04-21T01:34:45.463Z,7.37
2019-04-21T01:37:15.826Z,7.57
2019-04-21T01:39:55.341Z,7.50
2019-04-21T01:42:25.633Z,7.67
2019-04-21T01:44:59.949Z,6.80
2019-04-21T01:47:29.337Z,7.30
2019-04-21T01:49:56.799Z,7.17
2019-04-21T01:52:44.220Z,6.73
2019-04-21T01:55:25.158Z,7.13
2019-04-21T01:58:02.860Z,7.13
2019-04-21T02:00:55.051Z,6.80
2019-04-21T02:03:49.698Z,6.90
2019-04-21T02:06:11.317Z,6.83
2019-04-21T02:08:34.550Z,6.93
2019-04-21T02:11:17.004Z,6.47
2019-04-21T02:13:55.578Z,7.37
2019-04-21T02:16:18.584Z,7.70
2019-04-21T02:18:53.076Z,6.30
2019-04-21T02:21:21.709Z,7.33
2019-04-21T02:24:04.976Z,6.83
2019-04-21T02:26:36.142Z,6.80
2019-04-21T02:29:18.320Z,7.07
2019-04-21T02:31:57.188Z,6.50
2019-04-21T02:34:32.276Z,7.30
2019-04-21T02:39:37.378Z,6.20
2019-04-21T02:42:15.037Z,7.10
2019-04-21T02:44:46.292Z,6.37
2019-04-21T02:47:16.897Z,5.90
2019-04-21T02:52:31.886Z,6.57
2019-04-21T02:55:02.925Z,6.50
2019-04-21T02:57:32.142Z,6.00
2019-04-21T03:00:15.670Z,5.27
2019-04-21T03:03:06.993Z,5.60
2019-04-21T03:05:50.509Z,5.73
2019-04-21T03:08:34.357Z,6.03
2019-04-21T03:11:07.388Z,5.80
2019-04-21T03:13:44.499Z,5.33
2019-04-21T03:18:46.043Z,6.63
2019-04-21T03:23:57.295Z,6.40
2019-04-21T03:26:28.278Z,6.00
2019-04-21T03:29:00.896Z,6.10
2019-04-21T03:39:01.215Z,5.80
2019-04-21T03:41:48.363Z,6.53
2019-04-21T03:44:26.700Z,6.00
2019-04-21T03:46:55.691Z,6.27
2019-04-21T03:49:27.836Z,6.70
2019-04-21T03:52:03.793Z,6.00
2019-04-21T03:54:37.389Z,6.23
2019-04-21T03:59:38.852Z,5.63
2019-04-21T04:02:24.414Z,6.27
2019-04-21T04:05:07.312Z,5.93
2019-04-21T04:08:08.708Z,6.07
2019-04-21T04:10:22.913Z,6.47
2019-04-21T04:13:01.492Z,7.13
2019-04-21T04:15:42.972Z,7.83
2019-04-21T04:18:07.634Z,7.43
2019-04-21T04:20:48.039Z,8.13
2019-04-21T04:23:13.953Z,7.43
2019-04-21T04:28:23.023Z,6.77
2019-04-21T04:30:52.414Z,8.10
2019-04-21T04:33:37.732Z,11.27
2019-04-21T04:36:15.471Z,15.90
2019-04-21T04:38:46.815Z,16.13
2019-04-21T04:43:54.904Z,73.97
2019-04-21T04:46:29.041Z,11.07
2019-04-21T04:49:01.734Z,10.67
2019-04-21T04:51:48.361Z,8.97
2019-04-21T04:54:17.126Z,7.83
2019-04-21T04:56:38.386Z,7.67
2019-04-21T05:04:30.394Z,8.07
2019-04-21T05:11:55.399Z,8.20
2019-04-21T05:14:30.318Z,7.57
2019-04-21T05:17:14.106Z,8.00
2019-04-21T05:19:42.636Z,7.47
2019-04-21T05:22:20.230Z,23.27
2019-04-21T05:24:42.340Z,8.70
2019-04-21T05:27:25.332Z,7.50
2019-04-21T05:30:15.404Z,8.20
2019-04-21T05:32:58.290Z,10.93
2019-04-21T05:35:45.207Z,16.93
2019-04-21T05:38:21.831Z,40.20
2019-04-21T05:40:52.394Z,29.77
2019-04-21T05:43:32.457Z,37.63
2019-04-21T05:46:04.401Z,27.83
2019-04-21T05:48:46.909Z,8.03
2019-04-21T05:51:18.832Z,35.20
2019-04-21T05:54:04.900Z,31.13
2019-04-21T05:56:30.620Z,47.20
2019-04-21T05:59:00.656Z,17.23
2019-04-21T06:04:16.934Z,13.63
2019-04-21T06:06:51.499Z,8.97
2019-04-21T06:09:19.194Z,12.00
2019-04-21T06:11:51.330Z,24.53
2019-04-21T06:14:30.494Z,49.40
2019-04-21T06:17:01.546Z,44.60
2019-04-21T06:19:37.887Z,72.57
2019-04-21T06:22:03.593Z,62.13
2019-04-21T06:24:42.302Z,50.13
2019-04-21T06:27:16.287Z,70.70
2019-04-21T06:29:50.262Z,45.20
2019-04-21T06:32:35.914Z,67.97
2019-04-21T06:42:48.562Z,65.07
2019-04-21T06:45:25.427Z,73.33
2019-04-21T06:47:50.078Z,80.13
2019-04-21T06:50:24.248Z,79.73
2019-04-21T06:53:01.027Z,8.53
2019-04-21T06:55:49.710Z,8.10
2019-04-21T06:58:05.095Z,6.58
2019-04-21T07:00:38.542Z,7.03
2019-04-21T07:03:20.708Z,7.70
2019-04-21T07:05:48.455Z,8.25
2019-04-21T07:08:31.335Z,8.80
2019-04-21T07:10:51.794Z,12.00
2019-04-21T07:13:26.370Z,16.80
2019-04-21T07:16:09.093Z,19.17
2019-04-21T07:18:36.950Z,11.68
2019-04-21T07:21:08.168Z,26.33
2019-04-21T07:23:47.226Z,38.02
2019-04-21T07:26:19.696Z,43.00
2019-04-21T07:28:56.889Z,33.75
2019-04-21T07:31:25.188Z,8.30
2019-04-21T07:33:58.710Z,16.57
2019-04-21T07:36:38.259Z,28.67
2019-04-21T07:39:00.484Z,53.28
2019-04-21T07:41:34.020Z,59.75
2019-04-21T07:43:59.163Z,46.60
2019-04-21T07:46:37.178Z,55.25
2019-04-21T07:49:43.645Z,62.62
2019-04-21T07:52:28.316Z,27.02
2019-04-21T07:55:12.434Z,21.50
2019-04-21T07:57:33.221Z,48.02
2019-04-21T08:02:47.679Z,60.48
2019-04-21T08:07:51.930Z,61.40
2019-04-21T08:10:22.546Z,74.92
2019-04-21T08:12:54.449Z,80.62
2019-04-21T08:15:44.155Z,63.90
2019-04-21T08:18:09.202Z,69.87
2019-04-21T08:20:35.130Z,72.10
2019-04-21T08:23:13.086Z,68.12
2019-04-21T08:25:53.091Z,74.85
2019-04-21T08:28:19.197Z,76.90
2019-04-21T08:30:56.808Z,51.18
2019-04-21T08:33:37.175Z,50.30
2019-04-21T08:38:36.237Z,35.33
2019-04-21T08:41:08.601Z,50.55
2019-04-21T08:43:48.213Z,31.85
2019-04-21T08:46:22.721Z,46.08
2019-04-21T08:51:43.745Z,6.50
2019-04-21T08:54:01.415Z,5.97
2019-04-21T08:57:01.173Z,5.80
2019-04-21T09:00:08.800Z,5.28
2019-04-21T09:03:02.530Z,4.47
2019-04-21T09:05:29.537Z,5.55
2019-04-21T09:08:10.742Z,4.42
2019-04-21T09:10:39.203Z,5.00
2019-04-21T09:13:10.268Z,4.75
2019-04-21T09:15:47.408Z,4.65
2019-04-21T09:18:21.463Z,3.95
2019-04-21T09:21:01.116Z,5.03
2019-04-21T09:23:25.666Z,4.72
2019-04-21T09:26:08.224Z,4.87
2019-04-21T09:28:32.500Z,4.65
2019-04-21T09:30:55.953Z,4.97
2019-04-21T09:33:33.418Z,5.20
2019-04-21T09:36:02.554Z,4.87
2019-04-21T09:38:37.135Z,4.12
2019-04-21T09:41:06.776Z,4.03
2019-04-21T09:43:45.270Z,4.50
2019-04-21T09:46:14.217Z,4.10
2019-04-21T09:48:53.764Z,4.22
2019-04-21T09:51:21.231Z,5.22
2019-04-21T09:54:00.909Z,3.92
2019-04-21T09:56:36.016Z,4.40
2019-04-21T09:59:11.744Z,4.75
2019-04-21T10:01:49.137Z,4.22
2019-04-21T10:04:07.896Z,4.37
2019-04-21T10:06:40.101Z,4.53
2019-04-21T10:09:14.858Z,4.37
2019-04-21T10:11:46.467Z,4.50
2019-04-21T10:14:19.461Z,3.60
2019-04-21T10:31:12.903Z,4.78
2019-04-21T10:33:46.529Z,4.33
2019-04-21T10:36:19.110Z,4.95
2019-04-21T10:38:53.979Z,5.20
2019-04-21T10:41:27.484Z,4.15
2019-04-21T10:44:01.026Z,4.92
2019-04-21T10:46:34.874Z,4.50
2019-04-21T10:49:07.031Z,4.33
2019-04-21T10:51:39.337Z,3.85
2019-04-21T10:54:11.795Z,4.28
2019-04-21T10:56:45.585Z,4.53
2019-04-21T10:59:18.287Z,4.55
2019-04-21T11:01:50.740Z,4.22
2019-04-21T11:04:32.298Z,3.98
2019-04-21T11:07:06.976Z,4.55
2019-04-21T11:09:36.132Z,4.58
2019-04-21T11:12:10.068Z,5.42
2019-04-21T11:14:43.094Z,4.45
2019-04-21T11:17:16.440Z,3.92
2019-04-21T11:19:48.604Z,4.75
2019-04-21T11:22:20.940Z,4.62
2019-04-21T11:24:53.450Z,3.90
2019-04-21T11:27:26.819Z,4.78
2019-04-21T11:29:59.832Z,4.60
2019-04-21T11:32:32.813Z,4.30
2019-04-21T11:35:07.388Z,5.42
2019-04-21T11:37:39.962Z,3.75
2019-04-21T11:40:14.982Z,4.62
2019-04-21T11:42:48.033Z,4.30
2019-04-21T11:45:32.797Z,3.77
2019-04-21T11:48:26.246Z,5.12
2019-04-21T11:50:59.257Z,4.25
2019-04-21T11:53:32.855Z,4.37
2019-04-21T11:56:05.328Z,4.28
2019-04-21T11:58:37.341Z,4.08
2019-04-21T12:01:09.651Z,4.85
2019-04-21T12:03:42.290Z,3.90
2019-04-21T12:06:15.337Z,4.20
2019-04-21T12:08:50.917Z,4.78
2019-04-21T12:11:21.315Z,4.70
2019-04-21T12:13:54.256Z,5.28
2019-04-21T12:16:26.443Z,4.40
2019-04-21T12:18:58.834Z,4.50
2019-04-21T12:21:45.164Z,4.58
2019-04-21T12:24:04.949Z,3.47
2019-04-21T12:26:37.943Z,4.60
2019-04-21T12:29:10.332Z,5.15
2019-04-21T12:32:01.343Z,4.60
2019-04-21T12:34:34.266Z,4.50
2019-04-21T12:37:06.687Z,4.20
2019-04-21T12:39:38.856Z,4.78
2019-04-21T12:42:12.242Z,4.22
2019-04-21T12:44:45.414Z,5.30
2019-04-21T12:47:19.566Z,5.10
2019-04-21T12:49:52.087Z,5.42
2019-04-21T12:52:24.193Z,4.60
2019-04-21T12:54:57.528Z,5.50
2019-04-21T12:57:31.492Z,4.45
2019-04-21T13:00:04.725Z,4.85
2019-04-21T13:02:37.949Z,4.65
2019-04-21T13:05:11.648Z,4.72
2019-04-21T13:07:43.761Z,4.85
2019-04-21T13:10:18.309Z,4.72
2019-04-21T13:12:50.418Z,4.87
2019-04-21T13:15:22.421Z,5.00
2019-04-21T13:17:54.628Z,5.55
2019-04-21T13:20:29.497Z,6.12
2019-04-21T13:23:05.935Z,5.37
2019-04-21T13:25:38.224Z,5.10
2019-04-21T13:28:10.504Z,5.15
2019-04-21T13:30:42.615Z,5.05
2019-04-21T13:33:15.437Z,5.30
2019-04-21T13:35:48.823Z,5.30
2019-04-21T13:38:32.327Z,5.37
2019-04-21T13:41:27.348Z,4.45
2019-04-21T13:43:45.476Z,4.85
2019-04-21T13:46:17.772Z,3.85
2019-04-21T13:48:50.719Z,4.37
2019-04-21T13:51:23.186Z,6.30
2019-04-21T13:53:55.507Z,5.80
2019-04-21T13:56:28.912Z,6.35
2019-04-21T13:59:02.259Z,5.87
2019-04-21T14:01:35.851Z,5.95
2019-04-21T14:04:09.542Z,6.17
2019-04-21T14:06:42.443Z,5.50
2019-04-21T14:09:15.679Z,5.80
2019-04-21T14:11:49.317Z,5.37
2019-04-21T14:14:21.462Z,6.17
2019-04-21T14:16:54.236Z,5.67
2019-04-21T14:19:27.705Z,6.30
2019-04-21T14:22:01.208Z,4.72
2019-04-21T14:24:33.404Z,3.87
2019-04-21T14:27:05.978Z,4.60
2019-04-21T14:29:39.578Z,4.75
2019-04-21T14:32:11.519Z,4.85
2019-04-21T14:34:44.098Z,5.95
2019-04-21T14:37:17.008Z,5.37
2019-04-21T14:39:57.822Z,5.17
2019-04-21T14:42:24.273Z,5.15
2019-04-21T14:44:56.814Z,6.08
2019-04-21T14:47:54.313Z,4.80
2019-04-21T14:50:42.177Z,6.47
2019-04-21T14:53:25.543Z,7.15
2019-04-21T14:55:57.616Z,6.37
2019-04-21T14:58:30.848Z,5.10
2019-04-21T15:01:08.296Z,5.92
2019-04-21T15:03:41.682Z,5.28
2019-04-21T15:06:13.632Z,4.80
2019-04-21T15:08:47.000Z,4.17
2019-04-21T15:11:20.033Z,5.17
2019-04-21T15:13:53.623Z,5.12
2019-04-21T15:16:26.647Z,5.50
2019-04-21T15:18:59.142Z,3.90
2019-04-21T15:21:33.877Z,5.12
2019-04-21T15:24:06.543Z,4.55
2019-04-21T15:26:40.038Z,5.92
2019-04-21T15:29:12.869Z,4.30
2019-04-21T15:31:45.355Z,3.85
2019-04-21T15:34:22.055Z,5.33
2019-04-21T15:36:52.958Z,4.17
2019-04-21T15:39:25.751Z,5.10
2019-04-21T15:41:58.902Z,4.65
2019-04-21T15:44:32.418Z,5.28
2019-04-21T15:47:06.012Z,5.17
2019-04-21T15:50:03.617Z,5.00
2019-04-21T15:52:31.789Z,5.40
2019-04-21T15:55:14.985Z,3.87
2019-04-21T15:58:02.607Z,4.53
2019-04-21T16:00:42.615Z,4.85
2019-04-21T16:03:14.650Z,3.55
2019-04-21T16:05:46.895Z,4.67
2019-04-21T16:08:18.734Z,5.00
2019-04-21T16:10:56.556Z,4.87
2019-04-21T16:13:25.695Z,4.72
2019-04-21T16:15:58.822Z,5.08
2019-04-21T16:18:31.997Z,5.45
2019-04-21T16:21:06.020Z,5.60
2019-04-21T16:23:38.365Z,5.92
2019-04-21T16:26:10.871Z,6.10
2019-04-21T16:28:43.326Z,5.45
2019-04-21T16:31:16.337Z,5.75
2019-04-21T16:33:49.202Z,5.60
2019-04-21T16:36:21.640Z,6.30
2019-04-21T16:38:53.679Z,5.78
2019-04-21T16:41:26.865Z,6.17
2019-04-21T16:43:58.920Z,6.25
2019-04-21T16:46:31.703Z,5.95
2019-04-21T16:49:04.152Z,6.05
2019-04-21T16:51:38.053Z,7.37
2019-04-21T16:54:19.963Z,7.35
2019-04-21T16:57:08.275Z,7.35
2019-04-21T16:59:44.345Z,8.15
2019-04-21T17:02:18.574Z,8.30
2019-04-21T17:04:52.105Z,7.58
2019-04-21T17:07:24.532Z,7.75
2019-04-21T17:09:56.905Z,8.53
2019-04-21T17:12:31.188Z,7.40
2019-04-21T17:15:18.760Z,7.90
2019-04-21T17:18:00.801Z,8.80
2019-04-21T17:20:25.931Z,10.30
2019-04-21T17:22:46.958Z,10.25
2019-04-21T17:25:21.671Z,10.45
2019-04-21T17:27:54.545Z,11.35
2019-04-21T17:30:26.941Z,11.93
2019-04-21T17:32:59.588Z,11.13
2019-04-21T17:35:32.945Z,11.30
2019-04-21T17:38:06.017Z,11.85
2019-04-21T17:40:38.030Z,11.73
2019-04-21T17:43:14.321Z,15.27
2019-04-21T17:45:44.896Z,13.50
2019-04-21T17:48:18.430Z,14.20
2019-04-21T17:51:09.661Z,15.63
2019-04-21T17:53:58.688Z,15.37
2019-04-21T17:56:53.743Z,11.17
2019-04-21T17:59:28.131Z,12.87
2019-04-21T18:02:09.376Z,12.40
2019-04-21T18:04:30.731Z,11.93
2019-04-21T18:07:26.264Z,11.37
2019-04-21T18:10:14.383Z,9.47
2019-04-21T18:12:40.782Z,9.47
2019-04-21T18:15:16.168Z,9.93
2019-04-21T18:17:27.038Z,8.23
2019-04-21T18:19:59.705Z,10.40
2019-04-21T18:22:51.311Z,11.03
2019-04-21T18:25:37.508Z,9.27
2019-04-21T18:27:58.853Z,9.43
2019-04-21T18:31:03.045Z,8.83
2019-04-21T18:33:40.408Z,8.50
2019-04-21T18:36:49.774Z,9.00
2019-04-21T18:39:46.415Z,8.80
2019-04-21T18:42:47.886Z,8.10
2019-04-21T18:45:48.021Z,7.60
2019-04-21T18:48:32.822Z,7.53
2019-04-21T18:51:14.164Z,6.70
2019-04-21T18:54:17.688Z,8.07
2019-04-21T18:56:31.633Z,8.53
2019-04-21T18:59:04.444Z,7.60
2019-04-21T19:01:38.439Z,7.80
2019-04-21T19:04:14.300Z,6.93
2019-04-21T19:07:02.980Z,6.70
2019-04-21T19:09:47.422Z,6.67
2019-04-21T19:12:16.741Z,7.27
2019-04-21T19:14:43.073Z,5.87
2019-04-21T19:17:48.351Z,5.60
2019-04-21T19:19:55.884Z,5.17
2019-04-21T19:22:28.155Z,6.10
2019-04-21T19:25:04.784Z,5.80
2019-04-21T19:27:31.126Z,6.17
2019-04-21T19:30:28.758Z,6.47
2019-04-21T19:32:39.049Z,6.40
2019-04-21T19:34:59.678Z,6.37
2019-04-21T19:37:40.120Z,6.97
2019-04-21T19:40:16.341Z,6.13
2019-04-21T19:42:51.220Z,6.77
2019-04-21T19:45:29.386Z,7.30
2019-04-21T19:48:05.570Z,7.33
2019-04-21T19:50:43.936Z,6.70
2019-04-21T19:53:02.955Z,6.63
2019-04-21T19:55:28.292Z,7.47
2019-04-21T19:58:00.972Z,10.73
2019-04-21T20:00:34.655Z,12.40
2019-04-21T20:03:08.432Z,9.53
2019-04-21T20:05:47.651Z,9.37
2019-04-21T20:08:28.069Z,7.97
2019-04-21T20:11:10.707Z,7.47
2019-04-21T20:13:59.790Z,7.37
2019-04-21T20:16:15.098Z,7.60
2019-04-21T20:18:37.869Z,7.80
2019-04-21T20:21:04.008Z,8.33
2019-04-21T20:23:39.715Z,7.73
2019-04-21T20:26:12.206Z,7.03
2019-04-21T20:28:54.700Z,7.37
2019-04-21T20:31:36.738Z,7.53
2019-04-21T20:34:14.116Z,7.50
2019-04-21T20:36:51.424Z,7.87
2019-04-21T20:39:07.307Z,8.67
2019-04-21T20:41:46.831Z,7.87
2019-04-21T20:44:24.734Z,8.43
2019-04-21T20:46:59.782Z,9.03
2019-04-21T20:49:27.517Z,9.10
2019-04-21T20:52:13.526Z,8.10
2019-04-21T20:54:41.009Z,8.53
2019-04-21T20:57:18.866Z,8.47
2019-04-21T20:59:44.035Z,9.13
2019-04-21T21:02:21.097Z,8.80
2019-04-21T21:04:49.233Z,8.53
2019-04-21T21:07:41.674Z,8.23
2019-04-21T21:10:04.428Z,8.33
2019-04-21T21:12:43.164Z,8.13
2019-04-21T21:15:04.161Z,8.30
2019-04-21T21:17:53.836Z,9.20
2019-04-21T21:20:26.174Z,8.57
2019-04-21T21:22:50.906Z,9.00
2019-04-21T21:25:36.620Z,9.00
2019-04-21T21:27:54.908Z,8.20
2019-04-21T21:30:34.641Z,8.53
2019-04-21T21:33:12.603Z,8.23
2019-04-21T21:35:40.999Z,8.97
2019-04-21T21:38:19.736Z,8.57
2019-04-21T21:40:51.722Z,9.00
2019-04-21T21:43:17.621Z,8.60
2019-04-21T21:45:51.274Z,8.40
2019-04-21T21:48:31.772Z,9.67
2019-04-21T21:51:04.187Z,9.40
2019-04-21T21:53:30.144Z,7.93
2019-04-21T21:56:00.710Z,8.87
2019-04-21T21:58:38.644Z,8.90
2019-04-21T22:01:11.751Z,8.97
2019-04-21T22:03:47.238Z,9.40
2019-04-21T22:06:22.731Z,9.40
2019-04-21T22:08:52.704Z,9.77
2019-04-21T22:11:26.014Z,9.80
2019-04-21T22:14:04.367Z,10.10
2019-04-21T22:16:46.645Z,9.00
2019-04-21T22:19:21.913Z,10.40
2019-04-21T22:22:00.687Z,9.90
2019-04-21T22:24:35.155Z,8.87
2019-04-21T22:26:49.514Z,9.47
2019-04-21T22:29:21.607Z,9.30
2019-04-21T22:32:04.210Z,9.53
2019-04-21T22:34:33.870Z,9.27
2019-04-21T22:37:18.049Z,9.17
2019-04-21T22:39:51.573Z,8.40
2019-04-21T22:42:15.443Z,8.97
2019-04-21T22:44:42.906Z,9.50
2019-04-21T22:47:22.204Z,9.53
2019-04-21T22:49:48.708Z,10.50
2019-04-21T22:52:24.032Z,10.37
2019-04-21T22:54:55.829Z,9.87
2019-04-21T22:57:32.476Z,10.47
2019-04-21T23:00:07.080Z,9.80
2019-04-21T23:02:39.281Z,9.30
2019-04-21T23:05:11.441Z,9.17
2019-04-21T23:07:50.226Z,10.13
2019-04-21T23:10:19.207Z,9.73
2019-04-21T23:12:52.199Z,9.93
2019-04-21T23:15:36.854Z,9.33
2019-04-21T23:18:22.998Z,9.27
2019-04-21T23:20:53.566Z,9.00
2019-04-21T23:23:29.709Z,8.77
2019-04-21T23:25:56.016Z,8.60
2019-04-21T23:28:38.557Z,9.00
2019-04-21T23:31:06.736Z,7.83
2019-04-21T23:33:22.098Z,8.03
2019-04-21T23:36:02.625Z,8.17
2019-04-21T23:38:36.541Z,7.20
2019-04-21T23:41:05.620Z,8.30
2019-04-21T23:43:38.157Z,8.87
2019-04-21T23:46:18.838Z,8.30
2019-04-21T23:49:01.809Z,8.37
2019-04-21T23:51:31.397Z,8.63
2019-04-21T23:53:51.245Z,8.67
2019-04-21T23:56:30.312Z,8.63
